createdAt,value
2018-07-20T00:01:12.986Z,15.60
2018-07-20T00:03:41.472Z,15.60
2018-07-20T00:06:09.909Z,15.50
2018-07-20T00:08:38.368Z,15.50
2018-07-20T00:11:06.798Z,15.40
2018-07-20T00:13:35.290Z,15.40
2018-07-20T00:16:03.771Z,15.40
2018-07-20T00:18:32.232Z,15.40
2018-07-20T00:21:00.681Z,15.40
2018-07-20T00:23:29.154Z,15.40
2018-07-20T00:25:57.597Z,15.30
2018-07-20T00:28:26.059Z,15.30
2018-07-20T00:33:22.617Z,15.20
2018-07-20T00:38:19.173Z,15.10
2018-07-20T00:40:47.613Z,15.10
2018-07-20T00:43:16.085Z,15.10
2018-07-20T00:45:44.534Z,15.10
2018-07-20T00:48:12.961Z,15.10
2018-07-20T00:50:41.424Z,15.10
2018-07-20T00:53:09.877Z,15.00
2018-07-20T00:55:38.330Z,15.00
2018-07-20T01:00:34.882Z,15.00
2018-07-20T01:03:03.342Z,15.10
2018-07-20T01:05:31.797Z,15.00
2018-07-20T01:08:00.225Z,15.00
2018-07-20T01:10:28.687Z,15.00
2018-07-20T01:12:57.141Z,14.90
2018-07-20T01:15:25.622Z,14.90
2018-07-20T01:17:54.071Z,14.80
2018-07-20T01:20:22.550Z,14.80
2018-07-20T01:22:50.964Z,14.80
2018-07-20T01:25:19.445Z,14.80
2018-07-20T01:27:47.893Z,14.70
2018-07-20T01:30:16.419Z,14.70
2018-07-20T01:32:44.889Z,14.70
2018-07-20T01:35:13.332Z,14.60
2018-07-20T01:37:41.769Z,14.60
2018-07-20T01:40:10.232Z,14.60
2018-07-20T01:42:38.671Z,14.50
2018-07-20T01:45:07.146Z,14.40
2018-07-20T01:47:35.581Z,14.40
2018-07-20T01:50:04.363Z,14.50
2018-07-20T01:52:32.810Z,14.50
2018-07-20T01:55:01.265Z,14.40
2018-07-20T01:57:29.714Z,14.40
2018-07-20T01:59:58.149Z,14.40
2018-07-20T02:02:26.561Z,14.50
2018-07-20T02:04:55.011Z,14.50
2018-07-20T02:07:23.447Z,14.40
2018-07-20T02:09:51.913Z,14.40
2018-07-20T02:12:20.385Z,14.30
2018-07-20T02:14:48.817Z,14.30
2018-07-20T02:17:17.300Z,14.30
2018-07-20T02:19:45.744Z,14.30
2018-07-20T02:24:42.302Z,14.10
2018-07-20T02:27:10.807Z,14.00
2018-07-20T02:29:39.266Z,14.00
2018-07-20T02:32:07.723Z,13.90
2018-07-20T02:37:04.379Z,13.80
2018-07-20T02:42:01.021Z,13.90
2018-07-20T02:44:29.456Z,13.90
2018-07-20T02:46:57.913Z,13.90
2018-07-20T02:49:26.365Z,13.90
2018-07-20T02:51:54.829Z,13.80
2018-07-20T02:54:23.265Z,13.70
2018-07-20T02:56:51.745Z,13.60
2018-07-20T02:59:20.588Z,13.60
2018-07-20T03:01:49.070Z,13.60
2018-07-20T03:04:17.522Z,13.60
2018-07-20T03:06:46.523Z,13.60
2018-07-20T03:09:14.977Z,13.60
2018-07-20T03:11:44.253Z,13.60
2018-07-20T03:14:12.723Z,13.60
2018-07-20T03:19:09.686Z,13.70
2018-07-20T03:21:38.178Z,13.60
2018-07-20T03:24:06.678Z,13.60
2018-07-20T03:26:35.203Z,13.50
2018-07-20T03:29:03.657Z,13.50
2018-07-20T03:31:32.119Z,13.50
2018-07-20T03:34:00.576Z,13.50
2018-07-20T03:36:29.035Z,13.40
2018-07-20T03:41:25.657Z,13.40
2018-07-20T03:43:54.088Z,13.40
2018-07-20T03:46:22.537Z,13.40
2018-07-20T03:48:50.968Z,13.40
2018-07-20T03:51:19.441Z,13.30
2018-07-20T03:53:48.013Z,13.40
2018-07-20T03:56:16.575Z,13.40
2018-07-20T03:58:45.035Z,13.40
2018-07-20T04:01:13.478Z,13.40
2018-07-20T04:03:41.982Z,13.40
2018-07-20T04:06:10.409Z,13.40
2018-07-20T04:08:38.871Z,13.50
2018-07-20T04:13:35.521Z,13.30
2018-07-20T04:18:32.183Z,13.40
2018-07-20T04:23:28.814Z,13.40
2018-07-20T04:25:57.289Z,13.40
2018-07-20T04:28:25.773Z,13.50
2018-07-20T04:30:54.233Z,13.50
2018-07-20T04:33:22.677Z,13.50
2018-07-20T04:35:51.119Z,13.50
2018-07-20T04:38:19.582Z,13.50
2018-07-20T04:40:48.043Z,13.50
2018-07-20T04:43:16.479Z,13.50
2018-07-20T04:45:44.914Z,13.60
2018-07-20T04:48:13.377Z,13.60
2018-07-20T04:50:41.793Z,13.70
2018-07-20T04:53:10.277Z,13.70
2018-07-20T04:55:39.032Z,13.80
2018-07-20T04:58:07.501Z,13.90
2018-07-20T05:00:35.963Z,14.00
2018-07-20T05:03:04.434Z,14.10
2018-07-20T05:05:32.903Z,14.20
2018-07-20T05:08:01.379Z,14.20
2018-07-20T05:12:57.949Z,14.30
2018-07-20T05:15:26.400Z,14.30
2018-07-20T05:17:54.864Z,14.50
2018-07-20T05:20:23.342Z,14.70
2018-07-20T05:22:51.817Z,14.80
2018-07-20T05:25:20.299Z,14.90
2018-07-20T05:27:48.755Z,14.80
2018-07-20T05:30:17.333Z,14.80
2018-07-20T05:32:45.915Z,14.70
2018-07-20T05:35:14.346Z,14.80
2018-07-20T05:37:42.813Z,14.70
2018-07-20T05:40:11.345Z,14.80
2018-07-20T05:42:39.845Z,14.80
2018-07-20T05:45:08.477Z,14.90
2018-07-20T05:50:06.262Z,15.20
2018-07-20T05:52:34.754Z,15.40
2018-07-20T05:55:03.255Z,15.60
2018-07-20T05:57:31.713Z,15.80
2018-07-20T06:00:00.150Z,16.00
2018-07-20T06:02:28.641Z,16.20
2018-07-20T06:04:57.077Z,16.40
2018-07-20T06:07:25.542Z,16.50
2018-07-20T06:09:53.980Z,16.70
2018-07-20T06:12:22.518Z,16.70
2018-07-20T06:14:50.909Z,16.90
2018-07-20T06:17:19.323Z,17.00
2018-07-20T06:19:47.782Z,17.10
2018-07-20T06:22:16.243Z,17.30
2018-07-20T06:24:44.767Z,17.40
2018-07-20T06:27:13.246Z,17.60
2018-07-20T06:29:41.708Z,17.70
2018-07-20T06:32:10.778Z,17.80
2018-07-20T06:34:39.232Z,18.00
2018-07-20T06:37:07.689Z,18.20
2018-07-20T06:39:36.186Z,18.30
2018-07-20T06:42:04.714Z,18.50
2018-07-20T06:44:33.205Z,18.60
2018-07-20T06:47:01.654Z,18.80
2018-07-20T06:49:30.118Z,19.00
2018-07-20T06:51:58.570Z,19.10
2018-07-20T06:54:27.025Z,19.30
2018-07-20T06:56:55.471Z,19.30
2018-07-20T06:59:23.957Z,19.50
2018-07-20T07:01:52.398Z,19.60
2018-07-20T07:04:21.118Z,19.90
2018-07-20T07:06:49.562Z,20.10
2018-07-20T07:11:46.198Z,20.40
2018-07-20T07:14:14.652Z,20.60
2018-07-20T07:16:43.082Z,20.80
2018-07-20T07:21:39.687Z,21.10
2018-07-20T07:24:08.196Z,21.30
2018-07-20T07:26:36.668Z,21.50
2018-07-20T07:29:05.160Z,21.70
2018-07-20T07:34:01.758Z,21.90
2018-07-20T07:36:30.193Z,22.10
2018-07-20T07:41:26.830Z,22.40
2018-07-20T07:43:55.300Z,22.50
2018-07-20T07:46:23.840Z,22.70
2018-07-20T07:48:52.345Z,23.00
2018-07-20T07:51:20.814Z,23.00
2018-07-20T07:53:49.294Z,23.20
2018-07-20T07:56:17.749Z,23.30
2018-07-20T07:58:46.214Z,23.50
2018-07-20T08:01:14.646Z,23.50
2018-07-20T08:03:43.097Z,23.60
2018-07-20T08:06:11.553Z,23.70
2018-07-20T08:11:08.131Z,23.80
2018-07-20T08:13:36.569Z,23.90
2018-07-20T08:18:33.157Z,24.20
2018-07-20T08:21:01.573Z,24.30
2018-07-20T08:23:30.024Z,24.40
2018-07-20T08:25:58.505Z,24.50
2018-07-20T08:28:27.077Z,24.80
2018-07-20T08:30:55.505Z,24.90
2018-07-20T08:33:24.021Z,24.80
2018-07-20T08:35:52.497Z,24.80
2018-07-20T08:38:20.935Z,24.90
2018-07-20T08:40:49.389Z,24.90
2018-07-20T08:43:17.810Z,25.10
2018-07-20T08:45:46.277Z,25.30
2018-07-20T08:48:14.789Z,25.40
2018-07-20T08:50:44.133Z,25.60
2018-07-20T08:53:12.585Z,25.90
2018-07-20T08:55:41.097Z,26.20
2018-07-20T08:58:09.533Z,26.20
2018-07-20T09:00:38.173Z,26.20
2018-07-20T09:03:06.599Z,26.10
2018-07-20T09:05:35.073Z,26.20
2018-07-20T09:08:03.489Z,26.70
2018-07-20T09:10:31.913Z,27.00
2018-07-20T09:13:00.342Z,27.20
2018-07-20T09:15:28.800Z,27.30
2018-07-20T09:20:25.541Z,27.00
2018-07-20T09:22:53.958Z,27.30
2018-07-20T09:25:22.444Z,27.40
2018-07-20T09:27:50.873Z,27.50
2018-07-20T09:30:19.352Z,27.80
2018-07-20T09:32:47.761Z,28.20
2018-07-20T09:35:16.298Z,28.30
2018-07-20T09:37:44.870Z,27.40
2018-07-20T09:40:13.318Z,27.30
2018-07-20T09:42:41.810Z,27.50
2018-07-20T09:47:38.390Z,28.40
2018-07-20T09:50:06.873Z,28.10
2018-07-20T09:52:36.033Z,27.70
2018-07-20T09:55:04.517Z,27.50
2018-07-20T09:57:32.958Z,27.70
2018-07-20T10:00:01.414Z,28.10
2018-07-20T10:02:29.853Z,28.10
2018-07-20T10:04:58.330Z,27.80
2018-07-20T10:07:26.771Z,28.50
2018-07-20T10:09:56.063Z,28.60
2018-07-20T10:12:24.529Z,28.50
2018-07-20T10:14:53.158Z,28.70
2018-07-20T10:17:21.598Z,29.20
2018-07-20T10:19:50.045Z,29.50
2018-07-20T10:22:18.496Z,30.50
2018-07-20T10:27:15.094Z,31.90
2018-07-20T10:29:43.582Z,32.60
2018-07-20T10:32:12.083Z,32.50
2018-07-20T10:34:40.529Z,31.80
2018-07-20T10:37:08.942Z,32.70
2018-07-20T10:39:37.415Z,33.00
2018-07-20T10:42:05.952Z,31.70
2018-07-20T10:44:34.373Z,32.00
2018-07-20T10:47:02.928Z,32.50
2018-07-20T10:49:31.303Z,30.80
2018-07-20T10:51:59.760Z,30.70
2018-07-20T10:54:28.202Z,31.10
2018-07-20T10:56:56.635Z,30.50
2018-07-20T10:59:25.153Z,31.00
2018-07-20T11:01:53.614Z,31.80
2018-07-20T11:04:22.016Z,31.40
2018-07-20T11:09:18.574Z,31.80
2018-07-20T11:11:46.993Z,32.10
2018-07-20T11:14:15.434Z,31.20
2018-07-20T11:16:43.888Z,32.50
2018-07-20T11:19:12.301Z,32.50
2018-07-20T11:21:40.773Z,33.50
2018-07-20T11:24:09.315Z,32.30
2018-07-20T11:26:37.805Z,33.20
2018-07-20T11:29:06.286Z,34.00
2018-07-20T11:31:34.734Z,34.70
2018-07-20T11:34:03.173Z,35.50
2018-07-20T11:36:31.616Z,34.20
2018-07-20T11:39:00.042Z,33.80
2018-07-20T11:41:28.506Z,34.00
2018-07-20T11:43:56.930Z,32.70
2018-07-20T11:46:25.382Z,32.60
2018-07-20T11:51:21.972Z,31.80
2018-07-20T11:53:50.392Z,31.50
2018-07-20T11:56:18.825Z,31.50
2018-07-20T11:58:47.231Z,31.10
2018-07-20T12:01:15.689Z,31.20
2018-07-20T12:03:44.194Z,31.30
2018-07-20T12:06:12.637Z,31.50
2018-07-20T12:08:41.056Z,32.10
2018-07-20T12:11:09.511Z,32.40
2018-07-20T12:13:37.938Z,32.10
2018-07-20T12:16:06.450Z,31.90
2018-07-20T12:18:34.897Z,32.70
2018-07-20T12:21:03.341Z,33.30
2018-07-20T12:23:31.783Z,31.90
2018-07-20T12:26:00.254Z,32.20
2018-07-20T12:28:28.671Z,32.40
2018-07-20T12:30:57.122Z,32.40
2018-07-20T12:33:25.562Z,32.40
2018-07-20T12:35:54.040Z,31.60
2018-07-20T12:38:22.463Z,31.10
2018-07-20T12:40:50.901Z,30.80
2018-07-20T12:43:19.325Z,31.50
2018-07-20T12:45:47.749Z,30.90
2018-07-20T12:48:16.181Z,30.60
2018-07-20T12:50:44.654Z,31.10
2018-07-20T12:53:13.050Z,32.00
2018-07-20T12:55:41.509Z,32.30
2018-07-20T13:00:38.110Z,31.70
2018-07-20T13:03:06.585Z,32.20
2018-07-20T13:05:35.045Z,32.70
2018-07-20T13:08:03.503Z,32.30
2018-07-20T13:10:31.925Z,31.40
2018-07-20T13:13:00.394Z,30.90
2018-07-20T13:15:28.818Z,31.80
2018-07-20T13:17:57.284Z,31.60
2018-07-20T13:20:25.722Z,32.10
2018-07-20T13:22:54.177Z,32.30
2018-07-20T13:25:22.610Z,33.00
2018-07-20T13:27:51.042Z,33.20
2018-07-20T13:30:19.502Z,33.20
2018-07-20T13:32:47.946Z,34.10
2018-07-20T13:35:16.440Z,33.60
2018-07-20T13:37:44.869Z,32.30
2018-07-20T13:40:13.293Z,31.90
2018-07-20T13:42:41.749Z,31.90
2018-07-20T13:45:10.229Z,32.70
2018-07-20T13:47:38.688Z,34.00
2018-07-20T13:50:07.262Z,35.00
2018-07-20T13:52:35.757Z,36.00
2018-07-20T13:57:32.358Z,34.60
2018-07-20T14:00:00.809Z,36.30
2018-07-20T14:02:29.272Z,36.30
2018-07-20T14:04:57.727Z,33.40
2018-07-20T14:09:54.309Z,31.40
2018-07-20T14:12:22.765Z,31.20
2018-07-20T14:17:19.354Z,31.20
2018-07-20T14:19:48.101Z,31.90
2018-07-20T14:24:44.808Z,32.90
2018-07-20T14:27:13.341Z,34.20
2018-07-20T14:32:09.978Z,33.20
2018-07-20T14:34:38.394Z,32.20
2018-07-20T14:37:06.878Z,31.40
2018-07-20T14:39:35.294Z,30.40
2018-07-20T14:42:03.793Z,29.80
2018-07-20T14:47:00.393Z,29.50
2018-07-20T14:49:28.826Z,29.50
2018-07-20T14:54:25.453Z,29.40
2018-07-20T14:56:53.937Z,29.30
2018-07-20T14:59:22.385Z,29.20
2018-07-20T15:01:50.824Z,29.00
2018-07-20T15:04:19.350Z,28.90
2018-07-20T15:06:47.962Z,28.70
2018-07-20T15:09:16.455Z,28.60
2018-07-20T15:11:45.039Z,28.50
2018-07-20T15:14:13.578Z,28.30
2018-07-20T15:16:42.147Z,28.20
2018-07-20T15:19:10.575Z,28.10
2018-07-20T15:21:39.040Z,28.10
2018-07-20T15:24:07.502Z,28.10
2018-07-20T15:26:35.994Z,28.10
2018-07-20T15:29:04.450Z,28.20
2018-07-20T15:31:32.897Z,28.20
2018-07-20T15:34:01.356Z,28.10
2018-07-20T15:36:29.794Z,28.00
2018-07-20T15:38:58.245Z,28.10
2018-07-20T15:41:26.697Z,28.10
2018-07-20T15:43:55.188Z,28.10
2018-07-20T15:46:23.677Z,28.40
2018-07-20T15:48:52.095Z,28.60
2018-07-20T15:51:20.517Z,28.70
2018-07-20T15:53:49.004Z,29.00
2018-07-20T15:56:17.389Z,28.90
2018-07-20T15:58:45.830Z,28.70
2018-07-20T16:01:14.263Z,28.80
2018-07-20T16:06:10.841Z,28.80
2018-07-20T16:08:39.293Z,28.90
2018-07-20T16:11:07.710Z,28.80
2018-07-20T16:13:36.161Z,28.90
2018-07-20T16:16:04.673Z,29.00
2018-07-20T16:18:33.126Z,29.20
2018-07-20T16:21:01.583Z,29.10
2018-07-20T16:23:30.061Z,28.70
2018-07-20T16:30:54.813Z,28.80
2018-07-20T16:33:23.270Z,29.40
2018-07-20T16:38:19.922Z,29.40
2018-07-20T16:43:16.516Z,28.80
2018-07-20T16:45:44.966Z,28.60
2018-07-20T16:48:13.416Z,28.50
2018-07-20T16:50:41.841Z,28.30
2018-07-20T16:53:10.301Z,28.10
2018-07-20T16:55:38.748Z,28.00
2018-07-20T16:58:07.216Z,27.90
2018-07-20T17:00:35.648Z,28.00
2018-07-20T17:03:04.136Z,27.70
2018-07-20T17:05:32.581Z,27.60
2018-07-20T17:08:01.050Z,27.50
2018-07-20T17:10:29.565Z,27.40
2018-07-20T17:12:58.034Z,27.30
2018-07-20T17:15:26.484Z,27.30
2018-07-20T17:17:54.938Z,27.30
2018-07-20T17:20:23.366Z,27.20
2018-07-20T17:22:51.869Z,27.10
2018-07-20T17:25:20.314Z,27.00
2018-07-20T17:27:48.960Z,26.80
2018-07-20T17:30:17.453Z,26.70
2018-07-20T17:32:46.011Z,26.70
2018-07-20T17:35:14.519Z,26.60
2018-07-20T17:37:43.137Z,26.50
2018-07-20T17:40:11.760Z,26.40
2018-07-20T17:42:40.270Z,26.30
2018-07-20T17:45:08.788Z,26.20
2018-07-20T17:47:37.204Z,26.10
2018-07-20T17:50:05.690Z,26.00
2018-07-20T17:52:34.234Z,25.90
2018-07-20T17:57:30.838Z,25.60
2018-07-20T18:00:04.689Z,25.50
2018-07-20T18:02:33.141Z,25.50
2018-07-20T18:05:01.607Z,25.40
2018-07-20T18:07:30.066Z,25.30
2018-07-20T18:09:58.533Z,25.20
2018-07-20T18:12:26.990Z,25.10
2018-07-20T18:14:55.485Z,25.10
2018-07-20T18:19:52.070Z,24.90
2018-07-20T18:22:20.542Z,24.80
2018-07-20T18:24:49.021Z,24.70
2018-07-20T18:27:17.681Z,24.60
2018-07-20T18:29:45.986Z,24.70
2018-07-20T18:32:15.120Z,24.70
2018-07-20T18:34:43.586Z,24.60
2018-07-20T18:37:12.042Z,24.40
2018-07-20T18:39:40.522Z,24.40
2018-07-20T18:42:09.036Z,24.50
2018-07-20T18:44:37.486Z,24.50
2018-07-20T18:47:06.053Z,24.50
2018-07-20T18:49:34.530Z,24.60
2018-07-20T18:52:02.998Z,24.50
2018-07-20T18:59:28.122Z,24.20
2018-07-20T19:04:24.713Z,24.10
2018-07-20T19:06:53.183Z,24.10
2018-07-20T19:09:21.589Z,24.00
2018-07-20T19:11:50.062Z,23.80
2018-07-20T19:14:18.499Z,23.70
2018-07-20T19:16:46.969Z,23.70
2018-07-20T19:19:15.403Z,23.40
2018-07-20T19:21:43.839Z,23.20
2018-07-20T19:24:12.265Z,23.10
2018-07-20T19:26:40.800Z,22.90
2018-07-20T19:31:37.429Z,22.70
2018-07-20T19:34:05.886Z,22.60
2018-07-20T19:36:34.338Z,22.50
2018-07-20T19:39:02.845Z,22.40
2018-07-20T19:41:31.301Z,22.30
2018-07-20T19:43:59.729Z,22.20
2018-07-20T19:46:28.207Z,22.00
2018-07-20T19:48:56.620Z,21.90
2018-07-20T19:51:25.126Z,21.80
2018-07-20T19:53:53.529Z,21.80
2018-07-20T19:56:21.980Z,21.70
2018-07-20T19:58:50.411Z,21.60
2018-07-20T20:01:18.941Z,21.50
2018-07-20T20:03:47.365Z,21.50
2018-07-20T20:06:15.854Z,21.40
2018-07-20T20:08:44.264Z,21.40
2018-07-20T20:11:12.675Z,21.30
2018-07-20T20:13:41.127Z,21.10
2018-07-20T20:16:09.561Z,21.10
2018-07-20T20:18:38.024Z,21.10
2018-07-20T20:21:06.846Z,20.90
2018-07-20T20:23:35.326Z,20.90
2018-07-20T20:28:31.929Z,20.70
2018-07-20T20:31:00.373Z,20.70
2018-07-20T20:33:29.708Z,20.70
2018-07-20T20:35:58.169Z,20.70
2018-07-20T20:38:26.601Z,20.60
2018-07-20T20:40:55.181Z,20.50
2018-07-20T20:45:51.757Z,20.40
2018-07-20T20:48:20.195Z,20.50
2018-07-20T20:50:48.637Z,20.50
2018-07-20T20:53:17.096Z,20.40
2018-07-20T20:55:45.513Z,20.40
2018-07-20T20:58:14.040Z,20.30
2018-07-20T21:03:10.634Z,20.00
2018-07-20T21:05:39.290Z,19.90
2018-07-20T21:10:37.085Z,19.90
2018-07-20T21:13:06.930Z,20.00
2018-07-20T21:15:35.527Z,20.10
2018-07-20T21:18:04.038Z,20.10
2018-07-20T21:20:32.479Z,20.20
2018-07-20T21:23:01.329Z,20.20
2018-07-20T21:25:29.842Z,20.20
2018-07-20T21:27:58.362Z,20.10
2018-07-20T21:30:26.809Z,20.00
2018-07-20T21:32:55.233Z,19.90
2018-07-20T21:37:52.117Z,20.00
2018-07-20T21:40:20.581Z,20.00
2018-07-20T21:45:17.353Z,19.80
2018-07-20T21:47:45.794Z,19.80
2018-07-20T21:50:14.293Z,19.80
2018-07-20T21:52:42.745Z,19.70
2018-07-20T21:55:11.185Z,19.80
2018-07-20T21:57:39.637Z,19.90
2018-07-20T22:02:39.942Z,19.90
2018-07-20T22:05:08.562Z,19.90
2018-07-20T22:10:05.470Z,19.90
2018-07-20T22:12:34.066Z,19.90
2018-07-20T22:15:02.518Z,19.90
2018-07-20T22:17:30.995Z,19.90
2018-07-20T22:19:59.449Z,19.90
2018-07-20T22:22:27.885Z,19.90
2018-07-20T22:24:56.334Z,19.80
2018-07-20T22:27:24.790Z,19.80
2018-07-20T22:29:53.337Z,19.80
2018-07-20T22:32:22.039Z,19.80
2018-07-20T22:37:18.614Z,19.70
2018-07-20T22:39:47.074Z,19.60
2018-07-20T22:44:43.743Z,19.60
2018-07-20T22:49:40.410Z,19.70
2018-07-20T22:52:08.840Z,19.60
2018-07-20T22:54:37.289Z,19.60
2018-07-20T22:57:05.726Z,19.60
2018-07-20T23:02:02.301Z,19.50
2018-07-20T23:04:30.735Z,19.50
2018-07-20T23:06:59.169Z,19.50
2018-07-20T23:09:27.609Z,19.60
2018-07-20T23:11:56.022Z,19.50
2018-07-20T23:14:24.472Z,19.50
2018-07-20T23:16:52.904Z,19.50
2018-07-20T23:19:21.352Z,19.50
2018-07-20T23:21:49.770Z,19.40
2018-07-20T23:24:18.197Z,19.30
2018-07-20T23:29:14.812Z,19.30
2018-07-20T23:31:53.529Z,19.20
2018-07-20T23:34:21.941Z,19.10
2018-07-20T23:39:18.510Z,19.20
2018-07-20T23:41:46.965Z,19.20
2018-07-20T23:44:15.393Z,19.20
2018-07-20T23:46:43.837Z,19.20
2018-07-20T23:49:12.249Z,19.10
2018-07-20T23:51:40.685Z,19.10
2018-07-20T23:56:37.341Z,19.10
2018-07-20T23:59:05.766Z,19.00
